sensor_id;sensor_type;location;lat;lon;timestamp;P1;durP1;ratioP1;P2;durP2;ratioP2
11447;SDS011;43755;49.736;8.734;2022-11-10T00:01:08;4.97;;;4.10;;
11447;SDS011;43755;49.736;8.734;2022-11-10T00:03:10;8.07;;;3.55;;
11447;SDS011;43755;49.736;8.734;2022-11-10T00:05:13;8.13;;;4.13;;
11447;SDS011;43755;49.736;8.734;2022-11-10T00:07:15;9.85;;;4.00;;
11447;SDS011;43755;49.736;8.734;2022-11-10T00:09:17;9.70;;;4.30;;
11447;SDS011;43755;49.736;8.734;2022-11-10T00:11:18;12.43;;;5.00;;
11447;SDS011;43755;49.736;8.734;2022-11-10T00:13:19;9.63;;;5.05;;
11447;SDS011;43755;49.736;8.734;2022-11-10T00:15:22;8.13;;;4.30;;
11447;SDS011;43755;49.736;8.734;2022-11-10T00:17:41;10.45;;;4.35;;
11447;SDS011;43755;49.736;8.734;2022-11-10T00:19:43;11.88;;;4.47;;
11447;SDS011;43755;49.736;8.734;2022-11-10T00:21:44;11.65;;;4.40;;
11447;SDS011;43755;49.736;8.734;2022-11-10T00:23:45;7.25;;;4.10;;
11447;SDS011;43755;49.736;8.734;2022-11-10T00:25:47;8.23;;;4.57;;
11447;SDS011;43755;49.736;8.734;2022-11-10T00:27:48;9.65;;;4.35;;
11447;SDS011;43755;49.736;8.734;2022-11-10T00:29:50;12.27;;;4.72;;
11447;SDS011;43755;49.736;8.734;2022-11-10T00:31:53;8.80;;;4.18;;
11447;SDS011;43755;49.736;8.734;2022-11-10T00:33:54;8.82;;;4.38;;
11447;SDS011;43755;49.736;8.734;2022-11-10T00:35:58;7.07;;;3.90;;
11447;SDS011;43755;49.736;8.734;2022-11-10T00:37:59;8.68;;;4.40;;
11447;SDS011;43755;49.736;8.734;2022-11-10T00:40:01;9.77;;;4.72;;
11447;SDS011;43755;49.736;8.734;2022-11-10T00:42:03;9.63;;;4.22;;
11447;SDS011;43755;49.736;8.734;2022-11-10T00:44:05;11.25;;;4.35;;
11447;SDS011;43755;49.736;8.734;2022-11-10T00:46:06;10.40;;;4.32;;
11447;SDS011;43755;49.736;8.734;2022-11-10T00:48:09;9.27;;;3.97;;
11447;SDS011;43755;49.736;8.734;2022-11-10T00:50:10;11.20;;;4.15;;
11447;SDS011;43755;49.736;8.734;2022-11-10T00:52:12;8.32;;;4.35;;
11447;SDS011;43755;49.736;8.734;2022-11-10T00:54:13;8.85;;;3.75;;
11447;SDS011;43755;49.736;8.734;2022-11-10T00:56:15;11.48;;;4.50;;
11447;SDS011;43755;49.736;8.734;2022-11-10T00:58:17;7.93;;;4.32;;
11447;SDS011;43755;49.736;8.734;2022-11-10T01:00:18;10.27;;;3.95;;
11447;SDS011;43755;49.736;8.734;2022-11-10T01:02:20;7.97;;;3.95;;
11447;SDS011;43755;49.736;8.734;2022-11-10T01:04:22;4.97;;;3.42;;
11447;SDS011;43755;49.736;8.734;2022-11-10T01:06:24;9.38;;;4.10;;
11447;SDS011;43755;49.736;8.734;2022-11-10T01:08:25;7.78;;;3.40;;
11447;SDS011;43755;49.736;8.734;2022-11-10T01:10:26;9.68;;;4.10;;
11447;SDS011;43755;49.736;8.734;2022-11-10T01:12:28;9.98;;;4.03;;
11447;SDS011;43755;49.736;8.734;2022-11-10T01:14:30;10.57;;;3.80;;
11447;SDS011;43755;49.736;8.734;2022-11-10T01:16:31;9.57;;;3.90;;
11447;SDS011;43755;49.736;8.734;2022-11-10T01:18:33;12.00;;;4.05;;
11447;SDS011;43755;49.736;8.734;2022-11-10T01:20:36;11.25;;;4.35;;
11447;SDS011;43755;49.736;8.734;2022-11-10T01:22:38;9.52;;;3.97;;
11447;SDS011;43755;49.736;8.734;2022-11-10T01:24:40;7.78;;;3.83;;
11447;SDS011;43755;49.736;8.734;2022-11-10T01:26:41;9.82;;;4.25;;
11447;SDS011;43755;49.736;8.734;2022-11-10T01:28:43;8.80;;;4.18;;
11447;SDS011;43755;49.736;8.734;2022-11-10T01:30:44;12.98;;;4.50;;
11447;SDS011;43755;49.736;8.734;2022-11-10T01:32:46;9.02;;;3.60;;
11447;SDS011;43755;49.736;8.734;2022-11-10T01:34:47;10.48;;;4.30;;
11447;SDS011;43755;49.736;8.734;2022-11-10T01:36:50;9.70;;;4.43;;
11447;SDS011;43755;49.736;8.734;2022-11-10T01:38:51;13.43;;;4.65;;
11447;SDS011;43755;49.736;8.734;2022-11-10T01:40:53;11.63;;;4.80;;
11447;SDS011;43755;49.736;8.734;2022-11-10T01:42:55;9.60;;;4.93;;
11447;SDS011;43755;49.736;8.734;2022-11-10T01:47:39;14.52;;;4.80;;
11447;SDS011;43755;49.736;8.734;2022-11-10T01:49:41;8.80;;;4.32;;
11447;SDS011;43755;49.736;8.734;2022-11-10T01:51:44;9.80;;;4.57;;
11447;SDS011;43755;49.736;8.734;2022-11-10T01:53:51;13.23;;;5.07;;
11447;SDS011;43755;49.736;8.734;2022-11-10T01:55:56;11.10;;;4.82;;
11447;SDS011;43755;49.736;8.734;2022-11-10T01:57:58;10.70;;;5.03;;
11447;SDS011;43755;49.736;8.734;2022-11-10T01:59:59;8.23;;;4.25;;
11447;SDS011;43755;49.736;8.734;2022-11-10T02:02:04;9.65;;;4.78;;
11447;SDS011;43755;49.736;8.734;2022-11-10T02:04:10;10.23;;;4.70;;
11447;SDS011;43755;49.736;8.734;2022-11-10T02:06:15;12.13;;;4.32;;
11447;SDS011;43755;49.736;8.734;2022-11-10T02:08:17;8.32;;;4.95;;
11447;SDS011;43755;49.736;8.734;2022-11-10T02:10:20;9.40;;;4.68;;
11447;SDS011;43755;49.736;8.734;2022-11-10T02:12:22;13.13;;;5.82;;
11447;SDS011;43755;49.736;8.734;2022-11-10T02:14:36;11.50;;;5.63;;
11447;SDS011;43755;49.736;8.734;2022-11-10T02:16:38;8.25;;;5.05;;
11447;SDS011;43755;49.736;8.734;2022-11-10T02:18:40;14.35;;;5.47;;
11447;SDS011;43755;49.736;8.734;2022-11-10T02:20:44;13.65;;;5.57;;
11447;SDS011;43755;49.736;8.734;2022-11-10T02:22:45;13.70;;;5.40;;
11447;SDS011;43755;49.736;8.734;2022-11-10T02:24:47;8.48;;;5.22;;
11447;SDS011;43755;49.736;8.734;2022-11-10T02:26:49;12.40;;;5.13;;
11447;SDS011;43755;49.736;8.734;2022-11-10T02:28:53;13.57;;;5.50;;
11447;SDS011;43755;49.736;8.734;2022-11-10T02:30:55;10.20;;;4.63;;
11447;SDS011;43755;49.736;8.734;2022-11-10T02:32:56;12.15;;;5.03;;
11447;SDS011;43755;49.736;8.734;2022-11-10T02:34:58;12.32;;;5.53;;
11447;SDS011;43755;49.736;8.734;2022-11-10T02:37:00;10.52;;;5.05;;
11447;SDS011;43755;49.736;8.734;2022-11-10T02:39:02;12.95;;;5.53;;
11447;SDS011;43755;49.736;8.734;2022-11-10T02:41:04;11.57;;;5.30;;
11447;SDS011;43755;49.736;8.734;2022-11-10T02:43:06;10.45;;;5.43;;
11447;SDS011;43755;49.736;8.734;2022-11-10T02:45:09;8.45;;;5.18;;
11447;SDS011;43755;49.736;8.734;2022-11-10T02:47:11;10.15;;;5.32;;
11447;SDS011;43755;49.736;8.734;2022-11-10T02:49:12;10.15;;;5.22;;
11447;SDS011;43755;49.736;8.734;2022-11-10T02:51:13;13.63;;;5.45;;
11447;SDS011;43755;49.736;8.734;2022-11-10T02:53:16;8.85;;;5.20;;
11447;SDS011;43755;49.736;8.734;2022-11-10T02:55:18;12.95;;;5.32;;
11447;SDS011;43755;49.736;8.734;2022-11-10T02:57:19;10.38;;;5.00;;
11447;SDS011;43755;49.736;8.734;2022-11-10T02:59:20;9.20;;;5.40;;
11447;SDS011;43755;49.736;8.734;2022-11-10T03:01:22;11.52;;;4.75;;
11447;SDS011;43755;49.736;8.734;2022-11-10T03:03:23;10.85;;;5.80;;
11447;SDS011;43755;49.736;8.734;2022-11-10T03:05:25;11.50;;;5.07;;
11447;SDS011;43755;49.736;8.734;2022-11-10T03:07:26;14.57;;;5.15;;
11447;SDS011;43755;49.736;8.734;2022-11-10T03:09:29;10.43;;;4.95;;
11447;SDS011;43755;49.736;8.734;2022-11-10T03:11:30;14.27;;;5.50;;
11447;SDS011;43755;49.736;8.734;2022-11-10T03:13:31;10.27;;;5.20;;
11447;SDS011;43755;49.736;8.734;2022-11-10T03:15:33;9.27;;;5.28;;
11447;SDS011;43755;49.736;8.734;2022-11-10T03:17:35;15.38;;;5.18;;
11447;SDS011;43755;49.736;8.734;2022-11-10T03:19:36;13.75;;;5.13;;
11447;SDS011;43755;49.736;8.734;2022-11-10T03:21:38;13.27;;;5.30;;
11447;SDS011;43755;49.736;8.734;2022-11-10T03:23:39;9.75;;;4.93;;
11447;SDS011;43755;49.736;8.734;2022-11-10T03:25:42;17.17;;;5.70;;
11447;SDS011;43755;49.736;8.734;2022-11-10T03:27:43;9.88;;;5.13;;
11447;SDS011;43755;49.736;8.734;2022-11-10T03:29:45;9.50;;;4.90;;
11447;SDS011;43755;49.736;8.734;2022-11-10T03:31:46;12.55;;;5.05;;
11447;SDS011;43755;49.736;8.734;2022-11-10T03:33:48;12.88;;;5.22;;
11447;SDS011;43755;49.736;8.734;2022-11-10T03:35:49;11.90;;;5.80;;
11447;SDS011;43755;49.736;8.734;2022-11-10T03:37:50;14.57;;;5.30;;
11447;SDS011;43755;49.736;8.734;2022-11-10T03:39:52;9.93;;;4.90;;
11447;SDS011;43755;49.736;8.734;2022-11-10T03:41:55;11.75;;;5.72;;
11447;SDS011;43755;49.736;8.734;2022-11-10T03:43:56;11.32;;;5.65;;
11447;SDS011;43755;49.736;8.734;2022-11-10T03:45:57;13.77;;;5.78;;
11447;SDS011;43755;49.736;8.734;2022-11-10T03:47:59;10.85;;;5.38;;
11447;SDS011;43755;49.736;8.734;2022-11-10T03:50:00;11.52;;;5.43;;
11447;SDS011;43755;49.736;8.734;2022-11-10T03:52:01;10.15;;;5.03;;
11447;SDS011;43755;49.736;8.734;2022-11-10T03:54:03;13.07;;;5.63;;
11447;SDS011;43755;49.736;8.734;2022-11-10T03:56:05;10.75;;;5.72;;
11447;SDS011;43755;49.736;8.734;2022-11-10T03:58:08;10.27;;;5.72;;
11447;SDS011;43755;49.736;8.734;2022-11-10T04:00:09;13.95;;;5.28;;
11447;SDS011;43755;49.736;8.734;2022-11-10T04:02:13;9.15;;;5.72;;
11447;SDS011;43755;49.736;8.734;2022-11-10T04:04:14;14.23;;;5.95;;
11447;SDS011;43755;49.736;8.734;2022-11-10T04:06:29;10.82;;;5.32;;
11447;SDS011;43755;49.736;8.734;2022-11-10T04:08:48;13.32;;;5.53;;
11447;SDS011;43755;49.736;8.734;2022-11-10T04:11:02;14.35;;;5.72;;
11447;SDS011;43755;49.736;8.734;2022-11-10T04:13:03;15.32;;;6.20;;
11447;SDS011;43755;49.736;8.734;2022-11-10T04:15:23;11.93;;;5.60;;
11447;SDS011;43755;49.736;8.734;2022-11-10T04:17:46;11.20;;;5.90;;
11447;SDS011;43755;49.736;8.734;2022-11-10T04:19:48;16.60;;;6.05;;
11447;SDS011;43755;49.736;8.734;2022-11-10T04:21:50;14.98;;;6.93;;
11447;SDS011;43755;49.736;8.734;2022-11-10T04:23:52;13.55;;;6.47;;
11447;SDS011;43755;49.736;8.734;2022-11-10T04:25:54;13.85;;;6.70;;
11447;SDS011;43755;49.736;8.734;2022-11-10T04:28:14;13.18;;;6.15;;
11447;SDS011;43755;49.736;8.734;2022-11-10T04:30:15;9.15;;;5.43;;
11447;SDS011;43755;49.736;8.734;2022-11-10T04:32:18;12.18;;;5.70;;
11447;SDS011;43755;49.736;8.734;2022-11-10T04:34:20;11.88;;;6.15;;
11447;SDS011;43755;49.736;8.734;2022-11-10T04:36:22;13.88;;;6.15;;
11447;SDS011;43755;49.736;8.734;2022-11-10T04:38:25;14.13;;;6.50;;
11447;SDS011;43755;49.736;8.734;2022-11-10T04:40:26;14.15;;;7.10;;
11447;SDS011;43755;49.736;8.734;2022-11-10T04:42:27;12.15;;;6.90;;
11447;SDS011;43755;49.736;8.734;2022-11-10T04:44:29;12.23;;;7.63;;
11447;SDS011;43755;49.736;8.734;2022-11-10T04:46:31;11.10;;;7.18;;
11447;SDS011;43755;49.736;8.734;2022-11-10T04:48:35;17.95;;;7.28;;
11447;SDS011;43755;49.736;8.734;2022-11-10T04:50:36;11.48;;;7.43;;
11447;SDS011;43755;49.736;8.734;2022-11-10T04:52:38;16.50;;;8.52;;
11447;SDS011;43755;49.736;8.734;2022-11-10T04:54:39;16.80;;;7.75;;
11447;SDS011;43755;49.736;8.734;2022-11-10T04:56:41;15.40;;;8.20;;
11447;SDS011;43755;49.736;8.734;2022-11-10T04:58:42;16.02;;;8.25;;
11447;SDS011;43755;49.736;8.734;2022-11-10T05:00:44;14.90;;;8.65;;
11447;SDS011;43755;49.736;8.734;2022-11-10T05:02:46;15.40;;;8.32;;
11447;SDS011;43755;49.736;8.734;2022-11-10T05:04:48;12.68;;;8.18;;
11447;SDS011;43755;49.736;8.734;2022-11-10T05:06:50;14.65;;;8.40;;
11447;SDS011;43755;49.736;8.734;2022-11-10T05:08:52;17.30;;;9.48;;
11447;SDS011;43755;49.736;8.734;2022-11-10T05:10:54;17.55;;;9.73;;
11447;SDS011;43755;49.736;8.734;2022-11-10T05:12:55;17.05;;;8.98;;
11447;SDS011;43755;49.736;8.734;2022-11-10T05:14:57;13.77;;;8.57;;
11447;SDS011;43755;49.736;8.734;2022-11-10T05:16:59;16.13;;;8.90;;
11447;SDS011;43755;49.736;8.734;2022-11-10T05:19:00;15.10;;;8.65;;
11447;SDS011;43755;49.736;8.734;2022-11-10T05:21:04;17.73;;;8.85;;
11447;SDS011;43755;49.736;8.734;2022-11-10T05:23:06;17.42;;;9.45;;
11447;SDS011;43755;49.736;8.734;2022-11-10T05:25:25;19.10;;;9.15;;
11447;SDS011;43755;49.736;8.734;2022-11-10T05:27:26;16.92;;;9.52;;
11447;SDS011;43755;49.736;8.734;2022-11-10T05:29:28;18.00;;;9.40;;
11447;SDS011;43755;49.736;8.734;2022-11-10T05:31:30;15.50;;;8.40;;
11447;SDS011;43755;49.736;8.734;2022-11-10T05:33:31;16.13;;;8.32;;
11447;SDS011;43755;49.736;8.734;2022-11-10T05:35:34;13.27;;;8.90;;
11447;SDS011;43755;49.736;8.734;2022-11-10T05:37:39;15.38;;;8.70;;
11447;SDS011;43755;49.736;8.734;2022-11-10T05:39:41;14.25;;;8.20;;
11447;SDS011;43755;49.736;8.734;2022-11-10T05:41:42;17.10;;;8.85;;
11447;SDS011;43755;49.736;8.734;2022-11-10T05:43:43;14.18;;;9.75;;
11447;SDS011;43755;49.736;8.734;2022-11-10T05:45:45;16.60;;;8.77;;
11447;SDS011;43755;49.736;8.734;2022-11-10T05:47:46;17.48;;;10.57;;
11447;SDS011;43755;49.736;8.734;2022-11-10T05:49:48;16.45;;;8.40;;
11447;SDS011;43755;49.736;8.734;2022-11-10T05:51:50;14.68;;;9.20;;
11447;SDS011;43755;49.736;8.734;2022-11-10T05:53:52;16.58;;;10.07;;
11447;SDS011;43755;49.736;8.734;2022-11-10T05:55:54;17.23;;;9.32;;
11447;SDS011;43755;49.736;8.734;2022-11-10T05:57:55;14.45;;;9.00;;
11447;SDS011;43755;49.736;8.734;2022-11-10T05:59:57;16.58;;;9.35;;
11447;SDS011;43755;49.736;8.734;2022-11-10T06:01:58;14.95;;;8.30;;
11447;SDS011;43755;49.736;8.734;2022-11-10T06:04:00;15.85;;;8.93;;
11447;SDS011;43755;49.736;8.734;2022-11-10T06:06:01;16.02;;;9.27;;
11447;SDS011;43755;49.736;8.734;2022-11-10T06:08:03;17.85;;;9.50;;
11447;SDS011;43755;49.736;8.734;2022-11-10T06:10:08;21.73;;;9.65;;
11447;SDS011;43755;49.736;8.734;2022-11-10T06:12:09;20.08;;;9.85;;
11447;SDS011;43755;49.736;8.734;2022-11-10T06:14:11;17.65;;;9.30;;
11447;SDS011;43755;49.736;8.734;2022-11-10T06:16:12;22.35;;;10.80;;
11447;SDS011;43755;49.736;8.734;2022-11-10T06:18:13;16.52;;;10.55;;
11447;SDS011;43755;49.736;8.734;2022-11-10T06:20:15;19.88;;;9.90;;
11447;SDS011;43755;49.736;8.734;2022-11-10T06:22:17;20.70;;;11.05;;
11447;SDS011;43755;49.736;8.734;2022-11-10T06:24:18;18.48;;;10.48;;
11447;SDS011;43755;49.736;8.734;2022-11-10T06:26:21;16.95;;;9.43;;
11447;SDS011;43755;49.736;8.734;2022-11-10T06:28:22;16.70;;;9.63;;
11447;SDS011;43755;49.736;8.734;2022-11-10T06:30:24;19.05;;;10.07;;
11447;SDS011;43755;49.736;8.734;2022-11-10T06:32:26;20.67;;;10.30;;
11447;SDS011;43755;49.736;8.734;2022-11-10T06:34:27;16.85;;;9.73;;
11447;SDS011;43755;49.736;8.734;2022-11-10T06:36:29;20.23;;;8.95;;
11447;SDS011;43755;49.736;8.734;2022-11-10T06:38:30;19.45;;;9.10;;
11447;SDS011;43755;49.736;8.734;2022-11-10T06:40:32;14.50;;;9.63;;
11447;SDS011;43755;49.736;8.734;2022-11-10T06:42:35;17.33;;;10.05;;
11447;SDS011;43755;49.736;8.734;2022-11-10T06:44:36;18.10;;;9.50;;
11447;SDS011;43755;49.736;8.734;2022-11-10T06:46:37;19.85;;;9.10;;
11447;SDS011;43755;49.736;8.734;2022-11-10T06:48:39;17.00;;;9.30;;
11447;SDS011;43755;49.736;8.734;2022-11-10T06:50:40;18.23;;;8.82;;
11447;SDS011;43755;49.736;8.734;2022-11-10T06:52:42;11.45;;;8.10;;
11447;SDS011;43755;49.736;8.734;2022-11-10T06:54:43;19.50;;;9.20;;
11447;SDS011;43755;49.736;8.734;2022-11-10T06:56:45;11.35;;;8.82;;
11447;SDS011;43755;49.736;8.734;2022-11-10T06:58:47;15.30;;;9.10;;
11447;SDS011;43755;49.736;8.734;2022-11-10T07:00:49;13.68;;;8.50;;
11447;SDS011;43755;49.736;8.734;2022-11-10T07:02:57;12.80;;;8.88;;
11447;SDS011;43755;49.736;8.734;2022-11-10T07:04:59;20.10;;;8.80;;
11447;SDS011;43755;49.736;8.734;2022-11-10T07:07:00;14.43;;;9.43;;
11447;SDS011;43755;49.736;8.734;2022-11-10T07:09:02;14.80;;;8.30;;
11447;SDS011;43755;49.736;8.734;2022-11-10T07:11:03;10.98;;;8.70;;
11447;SDS011;43755;49.736;8.734;2022-11-10T07:13:05;14.48;;;8.60;;
11447;SDS011;43755;49.736;8.734;2022-11-10T07:15:08;15.75;;;8.98;;
11447;SDS011;43755;49.736;8.734;2022-11-10T07:17:10;14.70;;;8.98;;
11447;SDS011;43755;49.736;8.734;2022-11-10T07:19:11;12.77;;;8.52;;
11447;SDS011;43755;49.736;8.734;2022-11-10T07:21:13;15.05;;;9.13;;
11447;SDS011;43755;49.736;8.734;2022-11-10T07:23:15;15.55;;;7.78;;
11447;SDS011;43755;49.736;8.734;2022-11-10T07:25:16;17.17;;;8.70;;
11447;SDS011;43755;49.736;8.734;2022-11-10T07:27:17;15.10;;;8.38;;
11447;SDS011;43755;49.736;8.734;2022-11-10T07:29:19;18.95;;;8.98;;
11447;SDS011;43755;49.736;8.734;2022-11-10T07:31:21;17.40;;;8.85;;
11447;SDS011;43755;49.736;8.734;2022-11-10T07:33:23;14.25;;;8.95;;
11447;SDS011;43755;49.736;8.734;2022-11-10T07:35:24;13.68;;;8.80;;
11447;SDS011;43755;49.736;8.734;2022-11-10T07:37:27;18.25;;;9.27;;
11447;SDS011;43755;49.736;8.734;2022-11-10T07:39:28;15.75;;;8.80;;
11447;SDS011;43755;49.736;8.734;2022-11-10T07:41:30;12.52;;;8.38;;
11447;SDS011;43755;49.736;8.734;2022-11-10T07:43:31;13.35;;;8.52;;
11447;SDS011;43755;49.736;8.734;2022-11-10T07:45:33;13.88;;;8.35;;
11447;SDS011;43755;49.736;8.734;2022-11-10T07:47:35;12.07;;;8.90;;
11447;SDS011;43755;49.736;8.734;2022-11-10T07:49:37;16.83;;;8.80;;
11447;SDS011;43755;49.736;8.734;2022-11-10T07:51:38;14.13;;;8.00;;
11447;SDS011;43755;49.736;8.734;2022-11-10T07:53:39;13.07;;;8.57;;
11447;SDS011;43755;49.736;8.734;2022-11-10T07:55:43;14.25;;;8.88;;
11447;SDS011;43755;49.736;8.734;2022-11-10T07:57:45;16.58;;;8.60;;
11447;SDS011;43755;49.736;8.734;2022-11-10T07:59:46;11.20;;;8.10;;
11447;SDS011;43755;49.736;8.734;2022-11-10T08:01:47;13.35;;;7.90;;
11447;SDS011;43755;49.736;8.734;2022-11-10T08:03:50;11.80;;;7.82;;
11447;SDS011;43755;49.736;8.734;2022-11-10T08:05:51;12.70;;;7.78;;
11447;SDS011;43755;49.736;8.734;2022-11-10T08:07:53;13.48;;;8.48;;
11447;SDS011;43755;49.736;8.734;2022-11-10T08:09:54;16.25;;;8.52;;
11447;SDS011;43755;49.736;8.734;2022-11-10T08:11:57;14.45;;;7.63;;
11447;SDS011;43755;49.736;8.734;2022-11-10T08:13:58;11.57;;;7.35;;
11447;SDS011;43755;49.736;8.734;2022-11-10T08:15:59;11.80;;;8.05;;
11447;SDS011;43755;49.736;8.734;2022-11-10T08:18:02;14.10;;;7.25;;
11447;SDS011;43755;49.736;8.734;2022-11-10T08:20:08;15.85;;;7.57;;
11447;SDS011;43755;49.736;8.734;2022-11-10T08:22:09;12.32;;;7.47;;
11447;SDS011;43755;49.736;8.734;2022-11-10T08:24:11;18.10;;;8.15;;
11447;SDS011;43755;49.736;8.734;2022-11-10T08:26:12;13.85;;;7.53;;
11447;SDS011;43755;49.736;8.734;2022-11-10T08:28:16;13.18;;;7.18;;
11447;SDS011;43755;49.736;8.734;2022-11-10T08:30:18;11.43;;;7.20;;
11447;SDS011;43755;49.736;8.734;2022-11-10T08:32:19;13.23;;;7.28;;
11447;SDS011;43755;49.736;8.734;2022-11-10T08:34:21;12.65;;;7.38;;
11447;SDS011;43755;49.736;8.734;2022-11-10T08:36:24;9.88;;;7.32;;
11447;SDS011;43755;49.736;8.734;2022-11-10T08:38:25;14.70;;;7.40;;
11447;SDS011;43755;49.736;8.734;2022-11-10T08:40:27;12.20;;;7.03;;
11447;SDS011;43755;49.736;8.734;2022-11-10T08:42:28;13.13;;;6.70;;
11447;SDS011;43755;49.736;8.734;2022-11-10T08:44:30;14.88;;;7.30;;
11447;SDS011;43755;49.736;8.734;2022-11-10T08:46:34;10.48;;;6.30;;
11447;SDS011;43755;49.736;8.734;2022-11-10T08:48:35;14.30;;;6.43;;
11447;SDS011;43755;49.736;8.734;2022-11-10T08:50:37;10.93;;;6.25;;
11447;SDS011;43755;49.736;8.734;2022-11-10T08:52:40;10.35;;;6.28;;
11447;SDS011;43755;49.736;8.734;2022-11-10T08:54:41;8.85;;;5.82;;
11447;SDS011;43755;49.736;8.734;2022-11-10T08:56:42;10.55;;;6.22;;
11447;SDS011;43755;49.736;8.734;2022-11-10T08:58:44;12.32;;;6.47;;
11447;SDS011;43755;49.736;8.734;2022-11-10T09:00:45;11.57;;;6.10;;
11447;SDS011;43755;49.736;8.734;2022-11-10T09:02:47;11.63;;;6.50;;
11447;SDS011;43755;49.736;8.734;2022-11-10T09:04:49;10.18;;;6.63;;
11447;SDS011;43755;49.736;8.734;2022-11-10T09:06:50;12.50;;;5.88;;
11447;SDS011;43755;49.736;8.734;2022-11-10T09:08:53;14.85;;;6.20;;
11447;SDS011;43755;49.736;8.734;2022-11-10T09:10:54;9.48;;;5.88;;
11447;SDS011;43755;49.736;8.734;2022-11-10T09:12:57;12.07;;;6.05;;
11447;SDS011;43755;49.736;8.734;2022-11-10T09:15:00;12.65;;;6.35;;
11447;SDS011;43755;49.736;8.734;2022-11-10T09:17:01;14.93;;;6.00;;
11447;SDS011;43755;49.736;8.734;2022-11-10T09:19:03;13.48;;;5.78;;
11447;SDS011;43755;49.736;8.734;2022-11-10T09:21:04;12.98;;;6.18;;
11447;SDS011;43755;49.736;8.734;2022-11-10T09:23:11;8.43;;;5.50;;
11447;SDS011;43755;49.736;8.734;2022-11-10T09:25:15;8.63;;;5.70;;
11447;SDS011;43755;49.736;8.734;2022-11-10T09:27:17;13.32;;;5.60;;
11447;SDS011;43755;49.736;8.734;2022-11-10T09:29:18;11.75;;;5.82;;
11447;SDS011;43755;49.736;8.734;2022-11-10T09:31:20;8.93;;;5.20;;
11447;SDS011;43755;49.736;8.734;2022-11-10T09:33:22;12.90;;;5.03;;
11447;SDS011;43755;49.736;8.734;2022-11-10T09:35:23;9.25;;;5.20;;
11447;SDS011;43755;49.736;8.734;2022-11-10T09:37:25;9.20;;;5.30;;
11447;SDS011;43755;49.736;8.734;2022-11-10T09:39:27;8.90;;;5.13;;
11447;SDS011;43755;49.736;8.734;2022-11-10T09:41:29;13.38;;;5.63;;
11447;SDS011;43755;49.736;8.734;2022-11-10T09:43:32;8.68;;;4.80;;
11447;SDS011;43755;49.736;8.734;2022-11-10T09:45:43;10.43;;;4.75;;
11447;SDS011;43755;49.736;8.734;2022-11-10T09:47:46;11.05;;;4.78;;
11447;SDS011;43755;49.736;8.734;2022-11-10T09:49:56;10.10;;;4.10;;
11447;SDS011;43755;49.736;8.734;2022-11-10T09:52:00;9.77;;;4.55;;
11447;SDS011;43755;49.736;8.734;2022-11-10T09:54:04;7.38;;;3.17;;
11447;SDS011;43755;49.736;8.734;2022-11-10T09:56:11;7.60;;;3.40;;
11447;SDS011;43755;49.736;8.734;2022-11-10T09:58:19;7.18;;;3.75;;
11447;SDS011;43755;49.736;8.734;2022-11-10T10:00:24;8.50;;;3.80;;
11447;SDS011;43755;49.736;8.734;2022-11-10T10:02:26;10.73;;;4.20;;
11447;SDS011;43755;49.736;8.734;2022-11-10T10:04:37;8.13;;;4.20;;
11447;SDS011;43755;49.736;8.734;2022-11-10T10:06:51;10.00;;;4.22;;
11447;SDS011;43755;49.736;8.734;2022-11-10T10:09:00;8.70;;;3.80;;
11447;SDS011;43755;49.736;8.734;2022-11-10T10:11:14;8.50;;;3.30;;
11447;SDS011;43755;49.736;8.734;2022-11-10T10:13:35;9.35;;;3.40;;
11447;SDS011;43755;49.736;8.734;2022-11-10T10:15:58;8.38;;;3.38;;
11447;SDS011;43755;49.736;8.734;2022-11-10T10:18:14;7.20;;;3.42;;
11447;SDS011;43755;49.736;8.734;2022-11-10T10:20:22;10.15;;;3.50;;
11447;SDS011;43755;49.736;8.734;2022-11-10T10:22:35;11.02;;;3.78;;
11447;SDS011;43755;49.736;8.734;2022-11-10T10:24:49;8.40;;;3.83;;
11447;SDS011;43755;49.736;8.734;2022-11-10T10:26:53;10.27;;;3.60;;
11447;SDS011;43755;49.736;8.734;2022-11-10T10:29:01;11.88;;;3.50;;
11447;SDS011;43755;49.736;8.734;2022-11-10T10:31:11;9.60;;;3.70;;
11447;SDS011;43755;49.736;8.734;2022-11-10T10:33:18;9.80;;;3.28;;
11447;SDS011;43755;49.736;8.734;2022-11-10T10:35:20;6.20;;;3.28;;
11447;SDS011;43755;49.736;8.734;2022-11-10T10:37:23;10.20;;;3.67;;
11447;SDS011;43755;49.736;8.734;2022-11-10T10:39:27;9.05;;;3.38;;
11447;SDS011;43755;49.736;8.734;2022-11-10T10:41:34;7.90;;;3.38;;
11447;SDS011;43755;49.736;8.734;2022-11-10T10:43:37;8.30;;;3.30;;
11447;SDS011;43755;49.736;8.734;2022-11-10T10:45:41;5.10;;;2.83;;
11447;SDS011;43755;49.736;8.734;2022-11-10T10:47:43;10.15;;;3.30;;
11447;SDS011;43755;49.736;8.734;2022-11-10T10:49:45;9.32;;;3.55;;
11447;SDS011;43755;49.736;8.734;2022-11-10T10:51:46;6.90;;;3.28;;
11447;SDS011;43755;49.736;8.734;2022-11-10T10:53:49;12.10;;;3.50;;
11447;SDS011;43755;49.736;8.734;2022-11-10T10:55:52;7.20;;;3.50;;
11447;SDS011;43755;49.736;8.734;2022-11-10T10:57:59;10.50;;;3.85;;
11447;SDS011;43755;49.736;8.734;2022-11-10T11:00:09;7.78;;;3.17;;
11447;SDS011;43755;49.736;8.734;2022-11-10T11:02:27;6.55;;;3.30;;
11447;SDS011;43755;49.736;8.734;2022-11-10T11:04:33;8.98;;;3.70;;
11447;SDS011;43755;49.736;8.734;2022-11-10T11:06:36;9.50;;;3.55;;
11447;SDS011;43755;49.736;8.734;2022-11-10T11:08:37;8.25;;;3.42;;
11447;SDS011;43755;49.736;8.734;2022-11-10T11:10:39;11.00;;;3.58;;
11447;SDS011;43755;49.736;8.734;2022-11-10T11:12:45;7.55;;;3.60;;
11447;SDS011;43755;49.736;8.734;2022-11-10T11:14:47;6.75;;;3.60;;
11447;SDS011;43755;49.736;8.734;2022-11-10T11:16:49;10.07;;;3.60;;
11447;SDS011;43755;49.736;8.734;2022-11-10T11:18:53;8.18;;;3.85;;
11447;SDS011;43755;49.736;8.734;2022-11-10T11:20:56;10.27;;;3.80;;
11447;SDS011;43755;49.736;8.734;2022-11-10T11:23:02;9.38;;;3.53;;
11447;SDS011;43755;49.736;8.734;2022-11-10T11:25:15;7.20;;;3.20;;
11447;SDS011;43755;49.736;8.734;2022-11-10T11:27:23;9.13;;;3.90;;
11447;SDS011;43755;49.736;8.734;2022-11-10T11:29:38;10.70;;;3.80;;
11447;SDS011;43755;49.736;8.734;2022-11-10T11:31:53;11.73;;;3.83;;
11447;SDS011;43755;49.736;8.734;2022-11-10T11:34:09;7.78;;;3.03;;
11447;SDS011;43755;49.736;8.734;2022-11-10T11:36:19;9.48;;;3.40;;
11447;SDS011;43755;49.736;8.734;2022-11-10T11:38:29;7.03;;;3.38;;
11447;SDS011;43755;49.736;8.734;2022-11-10T11:40:35;10.57;;;3.13;;
11447;SDS011;43755;49.736;8.734;2022-11-10T11:42:48;9.30;;;3.15;;
11447;SDS011;43755;49.736;8.734;2022-11-10T11:45:03;10.27;;;3.53;;
11447;SDS011;43755;49.736;8.734;2022-11-10T11:47:18;8.00;;;3.05;;
11447;SDS011;43755;49.736;8.734;2022-11-10T11:49:38;5.85;;;3.03;;
11447;SDS011;43755;49.736;8.734;2022-11-10T11:51:57;7.50;;;3.42;;
11447;SDS011;43755;49.736;8.734;2022-11-10T11:54:14;8.63;;;3.65;;
11447;SDS011;43755;49.736;8.734;2022-11-10T11:56:29;5.88;;;2.63;;
11447;SDS011;43755;49.736;8.734;2022-11-10T11:58:36;7.70;;;3.28;;
11447;SDS011;43755;49.736;8.734;2022-11-10T12:00:47;10.57;;;3.47;;
11447;SDS011;43755;49.736;8.734;2022-11-10T12:02:59;8.30;;;3.53;;
11447;SDS011;43755;49.736;8.734;2022-11-10T12:05:17;6.55;;;3.10;;
11447;SDS011;43755;49.736;8.734;2022-11-10T12:07:35;9.38;;;3.35;;
11447;SDS011;43755;49.736;8.734;2022-11-10T12:09:45;9.93;;;3.42;;
11447;SDS011;43755;49.736;8.734;2022-11-10T12:11:53;7.00;;;3.25;;
11447;SDS011;43755;49.736;8.734;2022-11-10T12:14:03;7.10;;;3.17;;
11447;SDS011;43755;49.736;8.734;2022-11-10T12:16:13;8.00;;;3.40;;
11447;SDS011;43755;49.736;8.734;2022-11-10T12:18:23;8.85;;;3.17;;
11447;SDS011;43755;49.736;8.734;2022-11-10T12:20:34;9.10;;;3.22;;